createdAt,value
2017-09-09T00:02:00.554Z,3.77
2017-09-09T00:04:32.360Z,2.80
2017-09-09T00:07:03.800Z,3.70
2017-09-09T00:09:34.902Z,3.40
2017-09-09T00:12:06.825Z,4.60
2017-09-09T00:14:39.084Z,2.40
2017-09-09T00:17:14.158Z,2.87
2017-09-09T00:19:51.299Z,4.90
2017-09-09T00:22:22.406Z,4.43
2017-09-09T00:24:55.015Z,5.40
2017-09-09T00:27:26.188Z,4.93
2017-09-09T00:29:58.182Z,4.63
2017-09-09T00:32:29.735Z,3.27
2017-09-09T00:35:01.666Z,4.57
2017-09-09T00:37:33.252Z,5.37
2017-09-09T00:40:05.346Z,4.80
2017-09-09T00:42:37.088Z,4.90
2017-09-09T00:45:08.922Z,13.63
2017-09-09T00:47:40.633Z,4.47
2017-09-09T00:50:14.567Z,5.57
2017-09-09T00:52:47.394Z,3.10
2017-09-09T00:55:20.335Z,6.70
2017-09-09T00:57:52.527Z,3.27
2017-09-09T01:00:24.700Z,5.07
2017-09-09T01:02:56.829Z,8.23
2017-09-09T01:05:28.966Z,3.07
2017-09-09T01:08:01.217Z,3.33
2017-09-09T01:10:33.684Z,5.67
2017-09-09T01:13:05.537Z,5.30
2017-09-09T01:15:37.125Z,5.83
2017-09-09T01:18:08.835Z,5.43
2017-09-09T01:20:40.812Z,4.60
2017-09-09T01:23:18.631Z,4.27
2017-09-09T01:25:53.182Z,3.73
2017-09-09T01:28:27.429Z,4.67
2017-09-09T01:30:58.995Z,4.00
2017-09-09T01:33:30.266Z,5.17
2017-09-09T01:36:02.353Z,3.77
2017-09-09T01:38:33.994Z,3.30
2017-09-09T01:41:05.017Z,3.33
2017-09-09T01:43:37.754Z,3.90
2017-09-09T01:46:13.244Z,4.20
2017-09-09T01:48:44.710Z,3.30
2017-09-09T01:51:19.865Z,7.17
2017-09-09T01:53:52.147Z,6.43
2017-09-09T01:56:24.304Z,4.30
2017-09-09T01:58:55.981Z,4.47
2017-09-09T02:01:29.897Z,2.83
2017-09-09T02:04:04.120Z,2.83
2017-09-09T02:06:36.156Z,5.93
2017-09-09T02:09:07.968Z,3.30
2017-09-09T02:11:40.613Z,2.70
2017-09-09T02:14:16.264Z,3.50
2017-09-09T02:16:48.106Z,2.90
2017-09-09T02:19:19.809Z,5.00
2017-09-09T02:21:51.992Z,2.57
2017-09-09T02:24:23.469Z,4.70
2017-09-09T02:26:55.621Z,2.60
2017-09-09T02:29:27.467Z,5.00
2017-09-09T02:31:59.331Z,2.93
2017-09-09T02:34:31.650Z,2.73
2017-09-09T02:37:02.957Z,3.47
2017-09-09T02:39:34.368Z,2.90
2017-09-09T02:42:05.918Z,4.60
2017-09-09T02:44:47.577Z,3.37
2017-09-09T02:47:18.666Z,4.17
2017-09-09T02:49:50.177Z,2.43
2017-09-09T02:52:22.153Z,3.23
2017-09-09T02:54:55.308Z,5.57
2017-09-09T02:57:27.890Z,3.90
2017-09-09T03:00:00.341Z,3.40
2017-09-09T03:02:32.311Z,3.47
2017-09-09T03:05:04.130Z,2.50
2017-09-09T03:07:36.833Z,3.60
2017-09-09T03:10:09.431Z,3.67
2017-09-09T03:12:41.630Z,6.40
2017-09-09T03:15:15.276Z,3.40
2017-09-09T03:17:47.170Z,3.17
2017-09-09T03:20:19.116Z,4.10
2017-09-09T03:22:51.504Z,3.67
2017-09-09T03:25:23.152Z,4.00
2017-09-09T03:27:55.273Z,6.50
2017-09-09T03:30:26.369Z,3.73
2017-09-09T03:32:58.110Z,4.70
2017-09-09T03:35:30.127Z,3.77
2017-09-09T03:38:01.692Z,3.43
2017-09-09T03:40:33.446Z,3.73
2017-09-09T03:43:05.493Z,3.57
2017-09-09T03:45:38.237Z,3.83
2017-09-09T03:48:11.873Z,2.90
2017-09-09T03:50:43.823Z,4.20
2017-09-09T03:53:17.614Z,1.80
2017-09-09T03:55:49.446Z,5.43
2017-09-09T03:58:21.393Z,5.83
2017-09-09T04:00:54.009Z,3.33
2017-09-09T04:03:26.137Z,3.10
2017-09-09T04:05:58.763Z,6.00
2017-09-09T04:08:31.090Z,3.23
2017-09-09T04:11:02.798Z,4.37
2017-09-09T04:13:34.465Z,4.20
2017-09-09T04:16:07.146Z,3.30
2017-09-09T04:18:38.956Z,4.27
2017-09-09T04:21:12.655Z,3.00
2017-09-09T04:23:44.503Z,4.87
2017-09-09T04:26:16.949Z,3.60
2017-09-09T04:28:49.169Z,2.60
2017-09-09T04:31:21.385Z,2.67
2017-09-09T04:33:53.138Z,4.27
2017-09-09T04:36:24.729Z,3.80
2017-09-09T04:38:56.859Z,2.33
2017-09-09T04:41:28.479Z,2.70
2017-09-09T04:44:01.324Z,2.50
2017-09-09T04:46:32.693Z,1.83
2017-09-09T04:49:04.597Z,3.10
2017-09-09T04:51:36.159Z,2.57
2017-09-09T04:54:08.148Z,4.20
2017-09-09T04:56:40.085Z,2.73
2017-09-09T04:59:12.098Z,2.83
2017-09-09T05:01:43.260Z,2.37
2017-09-09T05:04:19.095Z,2.70
2017-09-09T05:06:51.030Z,2.87
2017-09-09T05:09:22.942Z,2.30
2017-09-09T05:11:56.343Z,7.80
2017-09-09T05:14:28.870Z,4.07
2017-09-09T05:17:01.102Z,3.27
2017-09-09T05:19:32.857Z,3.43
2017-09-09T05:22:05.453Z,2.70
2017-09-09T05:24:36.860Z,2.77
2017-09-09T05:27:08.340Z,2.60
2017-09-09T05:29:40.422Z,4.03
2017-09-09T05:32:15.769Z,2.70
2017-09-09T05:34:47.557Z,5.20
2017-09-09T05:37:19.460Z,6.97
2017-09-09T05:39:51.371Z,8.27
2017-09-09T05:42:23.989Z,12.57
2017-09-09T05:44:55.133Z,8.87
2017-09-09T05:47:26.226Z,9.57
2017-09-09T05:49:57.531Z,8.50
2017-09-09T05:52:31.222Z,12.10
2017-09-09T05:55:02.822Z,6.60
2017-09-09T05:57:34.755Z,7.77
2017-09-09T06:00:07.011Z,8.40
2017-09-09T06:02:39.595Z,6.80
2017-09-09T06:05:13.230Z,6.90
2017-09-09T06:07:44.743Z,4.70
2017-09-09T06:10:17.795Z,10.17
2017-09-09T06:12:49.817Z,5.27
2017-09-09T06:15:22.236Z,3.93
2017-09-09T06:17:55.137Z,5.73
2017-09-09T06:20:26.111Z,4.33
2017-09-09T06:22:57.961Z,4.80
2017-09-09T06:25:31.979Z,3.97
2017-09-09T06:28:03.114Z,6.10
2017-09-09T06:30:38.001Z,4.50
2017-09-09T06:33:12.395Z,4.00
2017-09-09T06:35:45.722Z,7.43
2017-09-09T06:38:17.744Z,4.87
2017-09-09T06:40:49.130Z,3.33
2017-09-09T06:43:21.194Z,3.10
2017-09-09T06:45:52.556Z,2.97
2017-09-09T06:48:24.234Z,6.20
2017-09-09T06:50:55.872Z,7.23
2017-09-09T06:53:29.738Z,2.87
2017-09-09T06:56:01.708Z,5.00
2017-09-09T06:58:33.606Z,2.73
2017-09-09T07:01:05.853Z,6.77
2017-09-09T07:03:37.050Z,4.53
2017-09-09T07:06:08.106Z,8.47
2017-09-09T07:08:40.448Z,5.00
2017-09-09T07:11:15.432Z,4.10
2017-09-09T07:13:48.661Z,8.47
2017-09-09T07:16:20.065Z,6.83
2017-09-09T07:18:51.350Z,5.07
2017-09-09T07:21:25.637Z,4.57
2017-09-09T07:23:57.940Z,3.60
2017-09-09T07:26:31.338Z,3.10
2017-09-09T07:29:03.948Z,5.73
2017-09-09T07:31:37.082Z,3.80
2017-09-09T07:34:08.666Z,3.20
2017-09-09T07:36:41.720Z,4.50
2017-09-09T07:39:15.822Z,8.23
2017-09-09T07:41:48.396Z,3.60
2017-09-09T07:44:20.880Z,7.20
2017-09-09T07:46:52.024Z,3.03
2017-09-09T07:49:23.761Z,2.60
2017-09-09T07:51:55.162Z,4.93
2017-09-09T07:54:28.534Z,4.07
2017-09-09T07:57:00.703Z,6.17
2017-09-09T07:59:32.025Z,3.97
2017-09-09T08:02:03.160Z,9.97
2017-09-09T08:04:34.631Z,6.40
2017-09-09T08:07:24.352Z,14.10
2017-09-09T08:09:55.693Z,5.53
2017-09-09T08:12:28.153Z,10.90
2017-09-09T08:14:59.487Z,11.20
2017-09-09T08:17:30.949Z,8.53
2017-09-09T08:20:02.392Z,14.67
2017-09-09T08:22:33.714Z,11.87
2017-09-09T08:25:05.779Z,27.23
2017-09-09T08:27:37.638Z,39.73
2017-09-09T08:30:09.425Z,34.27
2017-09-09T08:32:41.892Z,42.00
2017-09-09T08:35:31.383Z,53.07
2017-09-09T08:38:04.319Z,42.63
2017-09-09T08:40:37.368Z,40.37
2017-09-09T08:43:12.786Z,49.37
2017-09-09T08:45:45.320Z,38.83
2017-09-09T08:48:17.861Z,53.60
2017-09-09T08:50:49.157Z,41.63
2017-09-09T08:53:20.918Z,52.33
2017-09-09T08:55:52.983Z,38.53
2017-09-09T08:58:24.260Z,43.73
2017-09-09T09:00:55.444Z,45.60
2017-09-09T09:03:27.900Z,47.10
2017-09-09T09:05:59.168Z,42.70
2017-09-09T09:08:30.418Z,34.93
2017-09-09T09:11:01.857Z,25.10
2017-09-09T09:13:33.469Z,42.03
2017-09-09T09:16:05.483Z,27.03
2017-09-09T09:18:36.868Z,48.87
2017-09-09T09:21:09.079Z,39.47
2017-09-09T09:23:41.432Z,38.50
2017-09-09T09:26:18.623Z,30.77
2017-09-09T09:28:52.263Z,20.03
2017-09-09T09:31:23.813Z,36.23
2017-09-09T09:33:55.531Z,35.57
2017-09-09T09:36:27.050Z,23.37
2017-09-09T09:38:58.622Z,23.23
2017-09-09T09:41:31.326Z,20.17
2017-09-09T09:44:03.348Z,17.90
2017-09-09T09:46:34.963Z,17.10
2017-09-09T09:49:07.101Z,31.30
2017-09-09T09:51:40.231Z,15.53
2017-09-09T09:54:12.243Z,20.77
2017-09-09T09:56:44.025Z,20.70
2017-09-09T09:59:15.418Z,15.40
2017-09-09T10:01:47.447Z,21.27
2017-09-09T10:04:19.926Z,19.47
2017-09-09T10:06:51.637Z,25.67
2017-09-09T10:09:23.499Z,12.97
2017-09-09T10:11:55.609Z,15.70
2017-09-09T10:14:27.136Z,15.00
2017-09-09T10:16:58.704Z,11.50
2017-09-09T10:19:30.018Z,20.57
2017-09-09T10:22:02.348Z,10.93
2017-09-09T10:24:33.794Z,14.40
2017-09-09T10:27:05.992Z,9.20
2017-09-09T10:29:37.325Z,15.13
2017-09-09T10:32:09.280Z,10.40
2017-09-09T10:34:40.729Z,11.13
2017-09-09T10:37:13.419Z,13.23
2017-09-09T10:39:46.003Z,13.03
2017-09-09T10:42:18.422Z,17.20
2017-09-09T10:44:49.658Z,16.37
2017-09-09T10:47:21.791Z,10.33
2017-09-09T10:49:53.609Z,13.47
2017-09-09T10:52:26.093Z,8.73
2017-09-09T10:54:57.760Z,13.27
2017-09-09T10:57:29.147Z,17.60
2017-09-09T11:00:00.874Z,10.33
2017-09-09T11:02:33.959Z,11.73
2017-09-09T11:05:07.917Z,11.40
2017-09-09T11:07:41.879Z,16.73
2017-09-09T11:10:14.448Z,12.50
2017-09-09T11:12:46.621Z,14.37
2017-09-09T11:18:57.903Z,11.60
2017-09-09T11:21:29.448Z,8.97
2017-09-09T11:24:02.573Z,6.90
2017-09-09T11:26:34.136Z,7.77
2017-09-09T11:29:05.913Z,9.23
2017-09-09T11:31:37.130Z,10.60
2017-09-09T11:34:09.607Z,9.67
2017-09-09T11:36:41.185Z,9.57
2017-09-09T11:39:12.568Z,9.97
2017-09-09T11:41:44.466Z,12.27
2017-09-09T11:44:20.214Z,8.77
2017-09-09T11:46:53.615Z,7.80
2017-09-09T11:49:26.268Z,8.33
2017-09-09T11:51:58.197Z,12.00
2017-09-09T11:54:30.331Z,16.40
2017-09-09T11:57:01.751Z,23.53
2017-09-09T11:59:34.039Z,29.27
2017-09-09T12:02:07.872Z,28.43
2017-09-09T12:04:39.490Z,28.00
2017-09-09T12:07:13.979Z,35.33
2017-09-09T12:09:45.233Z,34.97
2017-09-09T12:12:19.382Z,35.37
2017-09-09T12:14:50.515Z,33.80
2017-09-09T12:17:22.498Z,40.17
2017-09-09T12:19:54.052Z,35.57
2017-09-09T12:22:25.382Z,40.83
2017-09-09T12:24:56.771Z,38.77
2017-09-09T12:27:28.521Z,41.90
2017-09-09T12:30:00.000Z,45.47
2017-09-09T12:32:31.514Z,40.90
2017-09-09T12:35:03.222Z,41.57
2017-09-09T12:37:35.375Z,36.50
2017-09-09T12:40:07.546Z,43.37
2017-09-09T12:42:39.393Z,43.37
2017-09-09T12:45:12.348Z,44.37
2017-09-09T12:47:43.766Z,48.23
2017-09-09T12:50:20.721Z,42.03
2017-09-09T12:52:52.256Z,42.50
2017-09-09T12:55:23.854Z,44.00
2017-09-09T12:57:55.307Z,43.03
2017-09-09T13:00:26.490Z,40.00
2017-09-09T13:02:58.423Z,46.80
2017-09-09T13:05:30.421Z,47.70
2017-09-09T13:08:01.885Z,43.27
2017-09-09T13:10:33.488Z,47.33
2017-09-09T13:13:06.235Z,43.47
2017-09-09T13:15:38.078Z,41.23
2017-09-09T13:18:12.787Z,43.10
2017-09-09T13:20:44.221Z,40.97
2017-09-09T13:23:15.334Z,35.50
2017-09-09T13:25:46.693Z,39.90
2017-09-09T13:28:18.877Z,39.93
2017-09-09T13:30:50.318Z,39.20
2017-09-09T13:33:22.184Z,37.07
2017-09-09T13:35:53.346Z,43.20
2017-09-09T13:38:25.284Z,41.33
2017-09-09T13:40:57.269Z,38.70
2017-09-09T13:43:28.944Z,32.73
2017-09-09T13:46:01.032Z,31.60
2017-09-09T13:48:32.518Z,33.90
2017-09-09T13:51:03.696Z,29.13
2017-09-09T13:53:35.570Z,36.57
2017-09-09T13:56:06.923Z,31.77
2017-09-09T13:58:38.178Z,35.60
2017-09-09T14:01:12.443Z,31.90
2017-09-09T14:03:44.882Z,31.07
2017-09-09T14:06:17.585Z,29.53
2017-09-09T14:08:49.017Z,34.07
2017-09-09T14:11:20.403Z,30.37
2017-09-09T14:19:48.439Z,34.73
2017-09-09T14:22:46.369Z,31.20
2017-09-09T14:25:51.984Z,27.17
2017-09-09T14:28:30.448Z,28.17
2017-09-09T14:31:50.988Z,22.03
2017-09-09T14:34:25.311Z,26.67
2017-09-09T14:36:57.254Z,25.53
2017-09-09T14:39:30.219Z,23.93
2017-09-09T14:42:02.681Z,26.70
2017-09-09T14:44:34.431Z,20.17
2017-09-09T14:47:05.717Z,20.87
2017-09-09T14:49:38.125Z,23.50
2017-09-09T14:52:11.999Z,22.60
2017-09-09T14:54:46.268Z,21.00
2017-09-09T15:03:44.259Z,20.17
2017-09-09T15:06:23.159Z,16.40
2017-09-09T15:09:01.593Z,16.13
2017-09-09T15:11:44.222Z,16.97
2017-09-09T15:14:43.104Z,17.70
2017-09-09T15:17:38.884Z,20.73
2017-09-09T15:20:56.596Z,20.90
2017-09-09T15:23:50.026Z,18.67
2017-09-09T15:26:45.488Z,17.50
2017-09-09T15:37:32.639Z,18.67
2017-09-09T15:40:32.419Z,18.80
2017-09-09T15:47:10.458Z,12.73
2017-09-09T15:56:30.133Z,16.57
2017-09-09T15:59:33.811Z,15.50
2017-09-09T16:02:25.238Z,10.40
2017-09-09T16:05:30.499Z,16.37
2017-09-09T16:08:21.811Z,14.10
2017-09-09T16:14:58.868Z,11.17
2017-09-09T16:20:42.041Z,10.93
2017-09-09T16:28:36.537Z,9.30
2017-09-09T16:31:09.918Z,11.47
2017-09-09T16:33:44.398Z,10.60
2017-09-09T16:36:18.254Z,11.30
2017-09-09T16:38:50.074Z,9.50
2017-09-09T16:41:23.002Z,11.63
2017-09-09T16:43:55.518Z,10.23
2017-09-09T16:46:26.582Z,7.73
2017-09-09T16:48:58.250Z,11.27
2017-09-09T16:51:33.505Z,10.70
2017-09-09T16:54:05.127Z,8.43
2017-09-09T16:56:36.477Z,7.30
2017-09-09T16:59:08.415Z,9.17
2017-09-09T17:01:39.690Z,5.63
2017-09-09T17:04:12.372Z,8.73
2017-09-09T17:06:43.694Z,9.07
2017-09-09T17:09:16.914Z,13.20
2017-09-09T17:11:47.977Z,9.10
2017-09-09T17:14:19.801Z,8.60
2017-09-09T17:16:51.750Z,9.50
2017-09-09T17:19:22.958Z,7.20
2017-09-09T17:21:54.925Z,8.47
2017-09-09T17:24:27.405Z,8.63
2017-09-09T17:26:58.611Z,6.70
2017-09-09T17:29:29.918Z,5.27
2017-09-09T17:32:00.950Z,5.63
2017-09-09T17:34:33.027Z,6.10
2017-09-09T17:37:05.029Z,7.37
2017-09-09T17:39:36.276Z,8.40
2017-09-09T17:42:07.704Z,6.53
2017-09-09T17:44:40.117Z,6.23
2017-09-09T17:47:12.867Z,7.43
2017-09-09T17:49:44.424Z,6.80
2017-09-09T17:52:17.032Z,6.90
2017-09-09T17:54:48.946Z,5.83
2017-09-09T17:57:20.280Z,5.33
2017-09-09T17:59:51.422Z,5.77
2017-09-09T18:02:23.036Z,8.60
2017-09-09T18:04:54.602Z,7.10
2017-09-09T18:07:29.150Z,4.33
2017-09-09T18:10:00.344Z,8.10
2017-09-09T18:12:32.347Z,4.97
2017-09-09T18:15:04.026Z,7.90
2017-09-09T18:17:35.831Z,7.80
2017-09-09T18:20:08.115Z,7.90
2017-09-09T18:22:41.063Z,4.37
2017-09-09T18:25:18.080Z,4.43
2017-09-09T18:27:50.327Z,5.73
2017-09-09T18:30:22.084Z,3.83
2017-09-09T18:32:54.236Z,5.60
2017-09-09T18:35:26.238Z,5.10
2017-09-09T18:37:57.879Z,7.43
2017-09-09T18:40:29.919Z,19.67
2017-09-09T18:43:01.783Z,19.03
2017-09-09T18:45:34.489Z,31.47
2017-09-09T18:48:07.570Z,36.27
2017-09-09T18:50:41.757Z,32.13
2017-09-09T18:53:18.073Z,32.20
2017-09-09T18:55:52.573Z,36.43
2017-09-09T18:58:26.468Z,34.63
2017-09-09T19:00:58.162Z,34.40
2017-09-09T19:03:30.987Z,39.90
2017-09-09T19:06:03.223Z,39.23
2017-09-09T19:08:35.927Z,46.57
2017-09-09T19:11:08.785Z,47.97
2017-09-09T19:13:42.907Z,46.07
2017-09-09T19:16:19.936Z,49.77
2017-09-09T19:18:53.329Z,41.07
2017-09-09T19:21:25.258Z,40.23
2017-09-09T19:23:56.389Z,45.90
2017-09-09T19:26:29.471Z,45.70
2017-09-09T19:29:01.694Z,46.83
2017-09-09T19:31:36.291Z,44.50
2017-09-09T19:34:07.795Z,52.87
2017-09-09T19:36:40.265Z,38.50
2017-09-09T19:39:15.798Z,47.87
2017-09-09T19:41:46.987Z,42.63
2017-09-09T19:44:19.424Z,50.53
2017-09-09T19:46:50.609Z,52.70
2017-09-09T19:49:21.817Z,60.83
2017-09-09T19:51:53.782Z,44.77
2017-09-09T19:54:26.795Z,43.63
2017-09-09T19:56:59.683Z,46.80
2017-09-09T19:59:31.485Z,58.93
2017-09-09T20:02:03.130Z,38.60
2017-09-09T20:04:37.141Z,50.33
2017-09-09T20:07:09.138Z,51.63
2017-09-09T20:09:41.669Z,50.00
2017-09-09T20:12:17.289Z,49.10
2017-09-09T20:14:50.091Z,48.90
2017-09-09T20:17:22.971Z,48.10
2017-09-09T20:19:55.412Z,50.30
2017-09-09T20:22:26.530Z,51.43
2017-09-09T20:24:58.330Z,43.50
2017-09-09T20:27:29.886Z,43.93
2017-09-09T20:30:01.487Z,46.77
2017-09-09T20:32:33.689Z,43.00
2017-09-09T20:35:05.205Z,45.57
2017-09-09T20:37:36.433Z,51.37
2017-09-09T20:40:09.310Z,44.40
2017-09-09T20:42:42.588Z,43.17
2017-09-09T20:45:17.820Z,49.63
2017-09-09T20:47:49.614Z,54.90
2017-09-09T20:50:21.427Z,45.23
2017-09-09T20:52:52.953Z,48.50
2017-09-09T20:55:24.552Z,53.50
2017-09-09T20:57:56.491Z,48.60
2017-09-09T21:00:29.524Z,53.37
2017-09-09T21:03:00.698Z,48.47
2017-09-09T21:05:33.949Z,45.13
2017-09-09T21:08:06.143Z,47.90
2017-09-09T21:10:37.929Z,48.23
2017-09-09T21:13:10.183Z,47.27
2017-09-09T21:15:43.869Z,44.00
2017-09-09T21:18:15.124Z,49.87
2017-09-09T21:20:46.826Z,45.33
2017-09-09T21:23:18.120Z,50.77
2017-09-09T21:25:50.544Z,50.43
2017-09-09T21:28:22.111Z,46.87
2017-09-09T21:30:53.481Z,45.43
2017-09-09T21:33:25.111Z,45.27
2017-09-09T21:35:56.548Z,49.97
2017-09-09T21:38:27.799Z,48.40
2017-09-09T21:40:59.554Z,49.67
2017-09-09T21:43:30.724Z,43.33
2017-09-09T21:46:02.567Z,55.00
2017-09-09T21:48:35.444Z,53.37
2017-09-09T21:51:06.835Z,42.80
2017-09-09T21:53:39.163Z,43.70
2017-09-09T21:56:17.762Z,47.63
2017-09-09T21:58:49.359Z,46.53
2017-09-09T22:01:21.591Z,46.83
2017-09-09T22:03:54.282Z,43.93
2017-09-09T22:06:26.202Z,46.40
2017-09-09T22:08:57.379Z,42.83
2017-09-09T22:11:28.745Z,41.57
2017-09-09T22:14:00.025Z,44.87
2017-09-09T22:16:31.780Z,40.70
2017-09-09T22:19:03.259Z,39.33
2017-09-09T22:21:34.771Z,39.80
2017-09-09T22:24:07.034Z,37.47
2017-09-09T22:26:38.681Z,33.80
2017-09-09T22:29:11.881Z,30.77
2017-09-09T22:31:43.875Z,34.57
2017-09-09T22:34:17.562Z,26.37
2017-09-09T22:36:49.939Z,32.00
2017-09-09T22:39:21.700Z,29.83
2017-09-09T22:41:52.981Z,30.40
2017-09-09T22:44:24.632Z,29.77
2017-09-09T22:46:56.053Z,29.83
2017-09-09T22:49:27.372Z,25.93
2017-09-09T22:51:58.361Z,29.80
2017-09-09T22:54:33.990Z,14.40
2017-09-09T22:57:04.986Z,12.87
2017-09-09T22:59:36.265Z,6.27
2017-09-09T23:02:07.363Z,6.60
2017-09-09T23:04:38.799Z,5.13
2017-09-09T23:07:12.335Z,4.90
2017-09-09T23:09:43.666Z,2.37
2017-09-09T23:12:14.934Z,4.23
2017-09-09T23:14:46.087Z,2.37
2017-09-09T23:17:18.295Z,2.83
2017-09-09T23:19:49.829Z,2.47
2017-09-09T23:22:21.916Z,2.40
2017-09-09T23:24:53.967Z,2.70
2017-09-09T23:27:25.613Z,4.43
2017-09-09T23:29:57.148Z,2.57
2017-09-09T23:32:29.798Z,2.33
2017-09-09T23:35:03.116Z,2.07
2017-09-09T23:37:34.853Z,3.33
2017-09-09T23:40:06.222Z,4.40
2017-09-09T23:42:38.094Z,2.47
2017-09-09T23:45:09.276Z,3.33
2017-09-09T23:47:42.139Z,1.53
2017-09-09T23:50:16.533Z,2.13
2017-09-09T23:52:47.545Z,2.10
2017-09-09T23:55:18.482Z,2.33
2017-09-09T23:57:49.468Z,2.17
